sensor_id;sensor_type;location;lat;lon;timestamp;pressure;altitude;pressure_sealevel;temperature;humidity
44313;BME280;38833;51.142;-0.974;2022-12-07T00:02:07;100791.16;;;22.85;32.20
44313;BME280;38833;51.142;-0.974;2022-12-07T00:04:40;100787.75;;;22.90;32.09
44313;BME280;38833;51.142;-0.974;2022-12-07T00:07:14;100789.71;;;22.74;32.25
44313;BME280;38833;51.142;-0.974;2022-12-07T00:09:47;100787.97;;;22.64;32.36
44313;BME280;38833;51.142;-0.974;2022-12-07T00:12:20;100788.51;;;22.45;32.57
44313;BME280;38833;51.142;-0.974;2022-12-07T00:14:53;100787.73;;;22.42;32.54
44313;BME280;38833;51.142;-0.974;2022-12-07T00:17:26;100783.05;;;22.22;32.50
44313;BME280;38833;51.142;-0.974;2022-12-07T00:20:00;100787.63;;;22.16;32.56
44313;BME280;38833;51.142;-0.974;2022-12-07T00:22:33;100785.50;;;22.24;32.72
44313;BME280;38833;51.142;-0.974;2022-12-07T00:25:07;100788.25;;;22.44;32.78
44313;BME280;38833;51.142;-0.974;2022-12-07T00:27:40;100787.31;;;22.13;32.78
44313;BME280;38833;51.142;-0.974;2022-12-07T00:30:13;100784.73;;;22.06;32.86
44313;BME280;38833;51.142;-0.974;2022-12-07T00:32:47;100782.97;;;22.07;32.85
44313;BME280;38833;51.142;-0.974;2022-12-07T00:35:20;100779.97;;;22.02;32.81
44313;BME280;38833;51.142;-0.974;2022-12-07T00:37:53;100779.02;;;22.17;33.02
44313;BME280;38833;51.142;-0.974;2022-12-07T00:40:26;100778.08;;;21.91;32.93
44313;BME280;38833;51.142;-0.974;2022-12-07T00:42:59;100776.69;;;21.85;32.93
44313;BME280;38833;51.142;-0.974;2022-12-07T00:45:32;100771.11;;;21.78;33.07
44313;BME280;38833;51.142;-0.974;2022-12-07T00:48:06;100768.39;;;22.30;33.00
44313;BME280;38833;51.142;-0.974;2022-12-07T00:50:39;100766.48;;;22.08;32.90
44313;BME280;38833;51.142;-0.974;2022-12-07T00:53:12;100769.04;;;21.78;32.97
44313;BME280;38833;51.142;-0.974;2022-12-07T00:55:46;100768.43;;;22.04;32.94
44313;BME280;38833;51.142;-0.974;2022-12-07T00:58:19;100764.81;;;21.81;32.76
44313;BME280;38833;51.142;-0.974;2022-12-07T01:00:52;100768.46;;;21.97;32.92
44313;BME280;38833;51.142;-0.974;2022-12-07T01:03:25;100764.49;;;21.65;33.06
44313;BME280;38833;51.142;-0.974;2022-12-07T01:05:59;100763.86;;;21.81;33.14
44313;BME280;38833;51.142;-0.974;2022-12-07T01:08:32;100768.36;;;22.08;33.00
44313;BME280;38833;51.142;-0.974;2022-12-07T01:11:08;100767.99;;;21.98;33.18
44313;BME280;38833;51.142;-0.974;2022-12-07T01:13:43;100767.46;;;21.56;32.97
44313;BME280;38833;51.142;-0.974;2022-12-07T01:16:17;100764.30;;;21.72;33.11
44313;BME280;38833;51.142;-0.974;2022-12-07T01:18:53;100762.79;;;21.65;33.17
44313;BME280;38833;51.142;-0.974;2022-12-07T01:21:28;100763.10;;;21.83;33.27
44313;BME280;38833;51.142;-0.974;2022-12-07T01:24:02;100759.35;;;21.36;33.08
44313;BME280;38833;51.142;-0.974;2022-12-07T01:26:36;100755.66;;;21.44;33.02
44313;BME280;38833;51.142;-0.974;2022-12-07T01:29:09;100758.27;;;21.56;33.16
44313;BME280;38833;51.142;-0.974;2022-12-07T01:31:43;100753.20;;;21.37;33.00
44313;BME280;38833;51.142;-0.974;2022-12-07T01:34:16;100753.09;;;21.79;33.08
44313;BME280;38833;51.142;-0.974;2022-12-07T01:36:49;100751.33;;;21.76;33.01
44313;BME280;38833;51.142;-0.974;2022-12-07T01:39:22;100749.75;;;21.43;33.26
44313;BME280;38833;51.142;-0.974;2022-12-07T01:41:55;100750.02;;;21.65;33.15
44313;BME280;38833;51.142;-0.974;2022-12-07T01:44:29;100751.30;;;21.66;33.14
44313;BME280;38833;51.142;-0.974;2022-12-07T01:47:04;100754.57;;;21.56;33.33
44313;BME280;38833;51.142;-0.974;2022-12-07T01:49:40;100755.55;;;21.04;33.19
44313;BME280;38833;51.142;-0.974;2022-12-07T01:52:17;100756.78;;;21.18;33.42
44313;BME280;38833;51.142;-0.974;2022-12-07T01:54:56;100757.89;;;21.56;33.11
44313;BME280;38833;51.142;-0.974;2022-12-07T01:57:33;100760.02;;;21.47;33.23
44313;BME280;38833;51.142;-0.974;2022-12-07T02:00:10;100761.46;;;21.34;33.36
44313;BME280;38833;51.142;-0.974;2022-12-07T02:02:47;100761.74;;;21.26;33.37
44313;BME280;38833;51.142;-0.974;2022-12-07T02:05:22;100763.47;;;21.30;33.45
44313;BME280;38833;51.142;-0.974;2022-12-07T02:07:57;100762.41;;;21.33;33.33
44313;BME280;38833;51.142;-0.974;2022-12-07T02:10:31;100760.58;;;21.27;33.35
44313;BME280;38833;51.142;-0.974;2022-12-07T02:13:08;100759.31;;;21.54;33.23
44313;BME280;38833;51.142;-0.974;2022-12-07T02:16:06;100760.70;;;21.16;33.05
44313;BME280;38833;51.142;-0.974;2022-12-07T02:18:53;100760.28;;;21.31;33.21
44313;BME280;38833;51.142;-0.974;2022-12-07T02:21:37;100757.68;;;21.32;33.25
44313;BME280;38833;51.142;-0.974;2022-12-07T02:24:24;100759.47;;;21.26;33.13
44313;BME280;38833;51.142;-0.974;2022-12-07T02:27:13;100760.58;;;21.31;33.09
44313;BME280;38833;51.142;-0.974;2022-12-07T02:29:56;100758.58;;;21.11;33.28
44313;BME280;38833;51.142;-0.974;2022-12-07T02:32:40;100762.45;;;21.11;33.29
44313;BME280;38833;51.142;-0.974;2022-12-07T02:35:18;100765.48;;;21.20;33.05
44313;BME280;38833;51.142;-0.974;2022-12-07T02:38:01;100765.13;;;21.39;33.16
44313;BME280;38833;51.142;-0.974;2022-12-07T02:40:39;100760.84;;;21.03;33.26
44313;BME280;38833;51.142;-0.974;2022-12-07T02:43:17;100758.74;;;21.02;33.26
44313;BME280;38833;51.142;-0.974;2022-12-07T02:45:54;100754.96;;;21.04;33.29
44313;BME280;38833;51.142;-0.974;2022-12-07T02:48:29;100752.56;;;21.11;33.15
44313;BME280;38833;51.142;-0.974;2022-12-07T02:51:05;100749.44;;;20.98;33.29
44313;BME280;38833;51.142;-0.974;2022-12-07T02:53:40;100750.96;;;20.94;33.29
44313;BME280;38833;51.142;-0.974;2022-12-07T02:56:18;100746.41;;;20.94;33.27
44313;BME280;38833;51.142;-0.974;2022-12-07T02:59:07;100745.27;;;20.83;33.33
44313;BME280;38833;51.142;-0.974;2022-12-07T03:01:54;100743.54;;;20.84;33.27
44313;BME280;38833;51.142;-0.974;2022-12-07T03:04:39;100743.21;;;20.83;33.22
44313;BME280;38833;51.142;-0.974;2022-12-07T03:07:21;100744.03;;;21.10;33.09
44313;BME280;38833;51.142;-0.974;2022-12-07T03:10:03;100744.94;;;20.97;33.35
44313;BME280;38833;51.142;-0.974;2022-12-07T03:12:45;100738.97;;;20.98;33.28
44313;BME280;38833;51.142;-0.974;2022-12-07T03:15:26;100732.97;;;20.83;33.47
44313;BME280;38833;51.142;-0.974;2022-12-07T03:18:02;100733.00;;;20.83;33.37
44313;BME280;38833;51.142;-0.974;2022-12-07T03:20:38;100731.78;;;20.62;33.39
44313;BME280;38833;51.142;-0.974;2022-12-07T03:23:15;100736.47;;;20.69;33.61
44313;BME280;38833;51.142;-0.974;2022-12-07T03:25:55;100738.27;;;20.66;33.51
44313;BME280;38833;51.142;-0.974;2022-12-07T03:28:32;100733.23;;;20.85;33.64
44313;BME280;38833;51.142;-0.974;2022-12-07T03:31:12;100727.90;;;20.54;33.68
44313;BME280;38833;51.142;-0.974;2022-12-07T03:33:51;100726.44;;;20.85;33.57
44313;BME280;38833;51.142;-0.974;2022-12-07T03:36:30;100729.93;;;20.53;33.62
44313;BME280;38833;51.142;-0.974;2022-12-07T03:39:13;100728.59;;;20.47;33.66
44313;BME280;38833;51.142;-0.974;2022-12-07T03:41:50;100726.93;;;20.48;33.59
44313;BME280;38833;51.142;-0.974;2022-12-07T03:44:24;100724.15;;;20.74;33.62
44313;BME280;38833;51.142;-0.974;2022-12-07T03:47:02;100720.83;;;20.59;33.83
44313;BME280;38833;51.142;-0.974;2022-12-07T03:49:41;100721.23;;;20.69;33.70
44313;BME280;38833;51.142;-0.974;2022-12-07T03:52:22;100718.89;;;20.31;33.76
44313;BME280;38833;51.142;-0.974;2022-12-07T03:55:00;100720.44;;;20.31;33.76
44313;BME280;38833;51.142;-0.974;2022-12-07T03:57:38;100723.83;;;20.30;33.75
44313;BME280;38833;51.142;-0.974;2022-12-07T04:00:14;100724.63;;;20.56;33.73
44313;BME280;38833;51.142;-0.974;2022-12-07T04:02:51;100724.88;;;20.61;33.62
44313;BME280;38833;51.142;-0.974;2022-12-07T04:05:25;100727.09;;;20.54;33.70
44313;BME280;38833;51.142;-0.974;2022-12-07T04:07:59;100729.74;;;20.22;33.68
44313;BME280;38833;51.142;-0.974;2022-12-07T04:10:32;100730.10;;;20.19;33.75
44313;BME280;38833;51.142;-0.974;2022-12-07T04:13:05;100731.06;;;20.49;33.69
44313;BME280;38833;51.142;-0.974;2022-12-07T04:15:38;100728.95;;;20.18;33.74
44313;BME280;38833;51.142;-0.974;2022-12-07T04:18:12;100729.81;;;20.14;33.78
44313;BME280;38833;51.142;-0.974;2022-12-07T04:20:46;100726.78;;;20.37;33.78
44313;BME280;38833;51.142;-0.974;2022-12-07T04:23:19;100726.17;;;19.90;33.72
44313;BME280;38833;51.142;-0.974;2022-12-07T04:25:52;100725.95;;;20.42;33.56
44313;BME280;38833;51.142;-0.974;2022-12-07T04:28:25;100724.11;;;20.41;33.64
44313;BME280;38833;51.142;-0.974;2022-12-07T04:30:59;100720.08;;;20.00;33.76
44313;BME280;38833;51.142;-0.974;2022-12-07T04:33:32;100717.85;;;20.38;33.64
44313;BME280;38833;51.142;-0.974;2022-12-07T04:36:05;100719.49;;;20.20;33.80
44313;BME280;38833;51.142;-0.974;2022-12-07T04:38:39;100720.11;;;20.38;33.64
44313;BME280;38833;51.142;-0.974;2022-12-07T04:41:12;100717.80;;;20.34;33.61
44313;BME280;38833;51.142;-0.974;2022-12-07T04:43:45;100716.25;;;20.20;33.67
44313;BME280;38833;51.142;-0.974;2022-12-07T04:46:19;100715.36;;;19.88;33.78
44313;BME280;38833;51.142;-0.974;2022-12-07T04:48:52;100717.64;;;20.06;33.80
44313;BME280;38833;51.142;-0.974;2022-12-07T04:51:27;100716.84;;;20.13;33.73
44313;BME280;38833;51.142;-0.974;2022-12-07T04:54:01;100718.80;;;20.07;33.84
44313;BME280;38833;51.142;-0.974;2022-12-07T04:56:34;100716.89;;;20.01;33.84
44313;BME280;38833;51.142;-0.974;2022-12-07T04:59:09;100716.53;;;19.93;33.90
44313;BME280;38833;51.142;-0.974;2022-12-07T05:03:56;100716.35;;;19.70;33.90
44313;BME280;38833;51.142;-0.974;2022-12-07T05:06:29;100710.95;;;19.82;33.76
44313;BME280;38833;51.142;-0.974;2022-12-07T05:09:03;100709.63;;;20.07;33.69
44313;BME280;38833;51.142;-0.974;2022-12-07T05:11:37;100711.99;;;19.74;33.84
44313;BME280;38833;51.142;-0.974;2022-12-07T05:14:13;100711.07;;;19.77;33.66
44313;BME280;38833;51.142;-0.974;2022-12-07T05:16:48;100704.17;;;20.29;33.62
44313;BME280;38833;51.142;-0.974;2022-12-07T05:19:21;100706.22;;;20.02;33.67
44313;BME280;38833;51.142;-0.974;2022-12-07T05:21:55;100701.17;;;19.66;33.72
44313;BME280;38833;51.142;-0.974;2022-12-07T05:24:28;100702.75;;;19.89;33.71
44313;BME280;38833;51.142;-0.974;2022-12-07T05:27:01;100703.47;;;19.82;33.90
44313;BME280;38833;51.142;-0.974;2022-12-07T05:29:34;100699.38;;;19.92;33.74
44313;BME280;38833;51.142;-0.974;2022-12-07T05:32:07;100699.88;;;19.87;33.81
44313;BME280;38833;51.142;-0.974;2022-12-07T05:34:40;100699.87;;;19.94;33.61
44313;BME280;38833;51.142;-0.974;2022-12-07T05:37:14;100702.44;;;20.09;33.41
44313;BME280;38833;51.142;-0.974;2022-12-07T05:39:47;100703.99;;;20.11;33.03
44313;BME280;38833;51.142;-0.974;2022-12-07T05:42:20;100703.50;;;20.34;32.70
44313;BME280;38833;51.142;-0.974;2022-12-07T05:44:54;100703.27;;;20.58;32.46
44313;BME280;38833;51.142;-0.974;2022-12-07T05:47:27;100701.48;;;20.54;32.28
44313;BME280;38833;51.142;-0.974;2022-12-07T05:50:00;100700.35;;;20.96;32.18
44313;BME280;38833;51.142;-0.974;2022-12-07T05:52:34;100700.62;;;21.13;32.12
44313;BME280;38833;51.142;-0.974;2022-12-07T05:55:07;100696.93;;;21.05;32.10
44313;BME280;38833;51.142;-0.974;2022-12-07T05:57:40;100692.79;;;21.22;32.07
44313;BME280;38833;51.142;-0.974;2022-12-07T06:00:14;100691.21;;;21.34;32.09
44313;BME280;38833;51.142;-0.974;2022-12-07T06:02:48;100691.75;;;21.50;32.08
44313;BME280;38833;51.142;-0.974;2022-12-07T06:05:21;100689.39;;;21.42;32.06
44313;BME280;38833;51.142;-0.974;2022-12-07T06:07:54;100695.92;;;21.57;32.05
44313;BME280;38833;51.142;-0.974;2022-12-07T06:10:27;100686.12;;;21.92;32.06
44313;BME280;38833;51.142;-0.974;2022-12-07T06:13:01;100686.32;;;22.04;32.04
44313;BME280;38833;51.142;-0.974;2022-12-07T06:15:35;100685.99;;;21.92;32.09
44313;BME280;38833;51.142;-0.974;2022-12-07T06:18:08;100687.12;;;22.03;32.08
44313;BME280;38833;51.142;-0.974;2022-12-07T06:20:42;100693.31;;;22.36;32.08
44313;BME280;38833;51.142;-0.974;2022-12-07T06:23:15;100696.48;;;22.24;32.09
44313;BME280;38833;51.142;-0.974;2022-12-07T06:25:48;100697.43;;;22.11;32.03
44313;BME280;38833;51.142;-0.974;2022-12-07T06:28:21;100697.43;;;22.21;31.99
44313;BME280;38833;51.142;-0.974;2022-12-07T06:30:57;100697.97;;;22.31;31.96
44313;BME280;38833;51.142;-0.974;2022-12-07T06:33:30;100699.23;;;22.41;31.90
44313;BME280;38833;51.142;-0.974;2022-12-07T06:36:04;100697.21;;;22.49;31.84
44313;BME280;38833;51.142;-0.974;2022-12-07T06:38:37;100699.13;;;22.56;31.81
44313;BME280;38833;51.142;-0.974;2022-12-07T06:41:10;100697.96;;;22.62;31.74
44313;BME280;38833;51.142;-0.974;2022-12-07T06:43:44;100691.48;;;22.66;31.70
44313;BME280;38833;51.142;-0.974;2022-12-07T06:46:17;100695.89;;;22.72;31.67
44313;BME280;38833;51.142;-0.974;2022-12-07T06:48:51;100698.68;;;22.79;31.57
44313;BME280;38833;51.142;-0.974;2022-12-07T06:51:24;100696.72;;;22.85;31.49
44313;BME280;38833;51.142;-0.974;2022-12-07T06:53:57;100694.72;;;22.69;31.43
44313;BME280;38833;51.142;-0.974;2022-12-07T06:56:31;100688.72;;;22.94;31.38
44313;BME280;38833;51.142;-0.974;2022-12-07T06:59:05;100691.85;;;23.02;31.27
44313;BME280;38833;51.142;-0.974;2022-12-07T07:01:39;100692.91;;;23.01;31.25
44313;BME280;38833;51.142;-0.974;2022-12-07T07:04:12;100694.28;;;22.84;31.21
44313;BME280;38833;51.142;-0.974;2022-12-07T07:06:45;100698.71;;;22.87;31.14
44313;BME280;38833;51.142;-0.974;2022-12-07T07:09:19;100702.19;;;23.02;30.97
44313;BME280;38833;51.142;-0.974;2022-12-07T07:11:52;100707.48;;;23.18;31.04
44313;BME280;38833;51.142;-0.974;2022-12-07T07:14:25;100704.59;;;23.19;30.99
44313;BME280;38833;51.142;-0.974;2022-12-07T07:16:58;100707.76;;;23.18;30.97
44313;BME280;38833;51.142;-0.974;2022-12-07T07:19:31;100707.66;;;23.24;30.90
44313;BME280;38833;51.142;-0.974;2022-12-07T07:22:05;100706.93;;;23.22;30.93
44313;BME280;38833;51.142;-0.974;2022-12-07T07:24:38;100710.70;;;23.21;30.98
44313;BME280;38833;51.142;-0.974;2022-12-07T07:27:11;100709.77;;;22.72;31.03
44313;BME280;38833;51.142;-0.974;2022-12-07T07:29:44;100714.31;;;23.07;31.01
44313;BME280;38833;51.142;-0.974;2022-12-07T07:32:17;100718.21;;;23.11;31.04
44313;BME280;38833;51.142;-0.974;2022-12-07T07:34:51;100720.47;;;23.22;31.03
44313;BME280;38833;51.142;-0.974;2022-12-07T07:37:25;100724.67;;;23.29;31.01
44313;BME280;38833;51.142;-0.974;2022-12-07T07:39:58;100725.41;;;23.08;31.01
44313;BME280;38833;51.142;-0.974;2022-12-07T07:42:31;100723.79;;;23.13;31.02
44313;BME280;38833;51.142;-0.974;2022-12-07T07:45:05;100728.02;;;23.46;30.99
44313;BME280;38833;51.142;-0.974;2022-12-07T07:47:38;100720.44;;;23.52;30.98
44313;BME280;38833;51.142;-0.974;2022-12-07T07:50:11;100718.67;;;23.32;30.92
44313;BME280;38833;51.142;-0.974;2022-12-07T07:52:45;100713.89;;;23.38;30.85
44313;BME280;38833;51.142;-0.974;2022-12-07T07:55:18;100715.43;;;23.68;30.82
44313;BME280;38833;51.142;-0.974;2022-12-07T07:57:51;100713.68;;;23.46;30.78
44313;BME280;38833;51.142;-0.974;2022-12-07T08:00:25;100714.63;;;23.48;30.77
44313;BME280;38833;51.142;-0.974;2022-12-07T08:02:58;100715.16;;;23.85;30.65
44313;BME280;38833;51.142;-0.974;2022-12-07T08:05:31;100714.30;;;23.52;30.71
44313;BME280;38833;51.142;-0.974;2022-12-07T08:08:05;100719.48;;;23.60;30.59
44313;BME280;38833;51.142;-0.974;2022-12-07T08:10:38;100722.29;;;23.47;30.75
44313;BME280;38833;51.142;-0.974;2022-12-07T08:13:11;100723.43;;;23.26;30.72
44313;BME280;38833;51.142;-0.974;2022-12-07T08:15:47;100726.66;;;23.71;30.46
44313;BME280;38833;51.142;-0.974;2022-12-07T08:18:20;100729.39;;;23.61;30.53
44313;BME280;38833;51.142;-0.974;2022-12-07T08:20:59;100730.77;;;23.57;30.60
44313;BME280;38833;51.142;-0.974;2022-12-07T08:23:33;100731.56;;;23.50;30.64
44313;BME280;38833;51.142;-0.974;2022-12-07T08:26:09;100727.41;;;23.46;30.66
44313;BME280;38833;51.142;-0.974;2022-12-07T08:28:42;100723.91;;;23.40;30.71
44313;BME280;38833;51.142;-0.974;2022-12-07T08:31:17;100725.57;;;23.65;30.71
44313;BME280;38833;51.142;-0.974;2022-12-07T08:33:51;100723.77;;;23.65;30.68
44313;BME280;38833;51.142;-0.974;2022-12-07T08:36:24;100725.09;;;23.39;30.64
44313;BME280;38833;51.142;-0.974;2022-12-07T08:38:57;100725.04;;;23.36;30.64
44313;BME280;38833;51.142;-0.974;2022-12-07T08:41:30;100727.55;;;23.31;30.67
44313;BME280;38833;51.142;-0.974;2022-12-07T08:44:05;100726.15;;;23.51;30.72
44313;BME280;38833;51.142;-0.974;2022-12-07T08:46:39;100725.42;;;23.48;30.72
44313;BME280;38833;51.142;-0.974;2022-12-07T08:49:17;100724.37;;;23.68;30.74
44313;BME280;38833;51.142;-0.974;2022-12-07T08:51:53;100727.95;;;23.61;30.76
44313;BME280;38833;51.142;-0.974;2022-12-07T08:54:28;100735.98;;;23.17;30.69
44313;BME280;38833;51.142;-0.974;2022-12-07T08:57:01;100736.34;;;23.30;30.68
44313;BME280;38833;51.142;-0.974;2022-12-07T08:59:37;100737.94;;;23.08;30.76
44313;BME280;38833;51.142;-0.974;2022-12-07T09:02:10;100733.25;;;23.13;30.96
44313;BME280;38833;51.142;-0.974;2022-12-07T09:04:43;100733.02;;;22.74;31.39
44313;BME280;38833;51.142;-0.974;2022-12-07T09:07:17;100730.67;;;22.55;31.25
44313;BME280;38833;51.142;-0.974;2022-12-07T09:09:50;100727.87;;;22.69;31.10
44313;BME280;38833;51.142;-0.974;2022-12-07T09:12:23;100732.18;;;23.26;31.32
44313;BME280;38833;51.142;-0.974;2022-12-07T09:14:57;100735.86;;;23.09;31.30
44313;BME280;38833;51.142;-0.974;2022-12-07T09:17:32;100735.81;;;23.68;31.37
44313;BME280;38833;51.142;-0.974;2022-12-07T09:20:07;100738.24;;;23.57;31.27
44313;BME280;38833;51.142;-0.974;2022-12-07T09:22:40;100735.13;;;23.61;31.37
44313;BME280;38833;51.142;-0.974;2022-12-07T09:25:13;100732.27;;;23.50;31.34
44313;BME280;38833;51.142;-0.974;2022-12-07T09:27:47;100727.44;;;23.61;31.52
44313;BME280;38833;51.142;-0.974;2022-12-07T09:30:20;100724.81;;;23.59;31.54
44313;BME280;38833;51.142;-0.974;2022-12-07T09:32:54;100726.14;;;23.76;31.72
44313;BME280;38833;51.142;-0.974;2022-12-07T09:35:27;100725.23;;;23.71;31.86
44313;BME280;38833;51.142;-0.974;2022-12-07T09:38:01;100728.75;;;24.05;31.71
44313;BME280;38833;51.142;-0.974;2022-12-07T09:40:34;100729.74;;;23.66;31.75
44313;BME280;38833;51.142;-0.974;2022-12-07T09:43:12;100729.55;;;22.79;30.75
44313;BME280;38833;51.142;-0.974;2022-12-07T09:45:48;100730.87;;;22.70;30.68
44313;BME280;38833;51.142;-0.974;2022-12-07T09:48:29;100736.15;;;22.31;31.21
44313;BME280;38833;51.142;-0.974;2022-12-07T09:51:10;100737.68;;;22.29;31.51
44313;BME280;38833;51.142;-0.974;2022-12-07T09:53:47;100740.16;;;22.18;31.16
44313;BME280;38833;51.142;-0.974;2022-12-07T09:56:22;100733.43;;;22.16;31.57
44313;BME280;38833;51.142;-0.974;2022-12-07T09:58:59;100730.15;;;22.12;31.51
44313;BME280;38833;51.142;-0.974;2022-12-07T10:01:33;100729.38;;;21.99;31.59
44313;BME280;38833;51.142;-0.974;2022-12-07T10:04:12;100731.11;;;22.17;31.76
44313;BME280;38833;51.142;-0.974;2022-12-07T10:06:47;100726.60;;;21.79;31.82
44313;BME280;38833;51.142;-0.974;2022-12-07T10:09:21;100720.50;;;21.60;32.13
44313;BME280;38833;51.142;-0.974;2022-12-07T10:12:00;100716.12;;;21.43;32.14
44313;BME280;38833;51.142;-0.974;2022-12-07T10:14:35;100715.50;;;21.83;32.24
44313;BME280;38833;51.142;-0.974;2022-12-07T10:17:30;100713.86;;;21.44;31.96
44313;BME280;38833;51.142;-0.974;2022-12-07T10:20:22;100713.06;;;21.52;31.91
44313;BME280;38833;51.142;-0.974;2022-12-07T10:22:59;100707.20;;;21.64;31.80
44313;BME280;38833;51.142;-0.974;2022-12-07T10:25:35;100701.76;;;21.67;31.77
44313;BME280;38833;51.142;-0.974;2022-12-07T10:28:13;100697.12;;;21.66;31.77
44313;BME280;38833;51.142;-0.974;2022-12-07T10:30:52;100691.66;;;21.90;31.84
44313;BME280;38833;51.142;-0.974;2022-12-07T10:33:30;100691.29;;;21.51;31.86
44313;BME280;38833;51.142;-0.974;2022-12-07T10:36:23;100684.52;;;21.99;31.88
44313;BME280;38833;51.142;-0.974;2022-12-07T10:39:02;100679.67;;;21.71;31.87
44313;BME280;38833;51.142;-0.974;2022-12-07T10:41:35;100674.73;;;21.50;31.83
44313;BME280;38833;51.142;-0.974;2022-12-07T10:44:26;100674.64;;;21.79;31.99
44313;BME280;38833;51.142;-0.974;2022-12-07T10:47:12;100672.75;;;21.40;31.82
44313;BME280;38833;51.142;-0.974;2022-12-07T10:50:02;100668.01;;;21.41;31.85
44313;BME280;38833;51.142;-0.974;2022-12-07T10:52:53;100661.78;;;21.49;32.10
44313;BME280;38833;51.142;-0.974;2022-12-07T10:55:39;100660.86;;;21.44;32.05
44313;BME280;38833;51.142;-0.974;2022-12-07T10:58:27;100656.95;;;21.39;32.08
44313;BME280;38833;51.142;-0.974;2022-12-07T11:01:11;100652.91;;;21.87;32.04
44313;BME280;38833;51.142;-0.974;2022-12-07T11:03:58;100653.07;;;21.42;31.28
44313;BME280;38833;51.142;-0.974;2022-12-07T11:06:39;100653.31;;;21.65;31.45
44313;BME280;38833;51.142;-0.974;2022-12-07T11:09:40;100651.23;;;21.42;31.67
44313;BME280;38833;51.142;-0.974;2022-12-07T11:12:29;100650.72;;;22.07;31.28
44313;BME280;38833;51.142;-0.974;2022-12-07T11:15:14;100648.11;;;22.46;31.10
44313;BME280;38833;51.142;-0.974;2022-12-07T11:17:56;100646.65;;;22.23;31.00
44313;BME280;38833;51.142;-0.974;2022-12-07T11:20:41;100641.10;;;22.68;31.22
44313;BME280;38833;51.142;-0.974;2022-12-07T11:23:23;100634.81;;;21.95;31.53
44313;BME280;38833;51.142;-0.974;2022-12-07T11:26:07;100630.13;;;22.05;31.59
44313;BME280;38833;51.142;-0.974;2022-12-07T11:29:02;100625.70;;;21.95;31.77
44313;BME280;38833;51.142;-0.974;2022-12-07T11:31:51;100624.94;;;21.56;32.05
44313;BME280;38833;51.142;-0.974;2022-12-07T11:34:37;100619.67;;;21.56;32.40
44313;BME280;38833;51.142;-0.974;2022-12-07T11:37:15;100614.36;;;21.55;32.27
44313;BME280;38833;51.142;-0.974;2022-12-07T11:39:54;100612.25;;;21.67;32.07
44313;BME280;38833;51.142;-0.974;2022-12-07T11:42:31;100608.30;;;21.42;32.26
44313;BME280;38833;51.142;-0.974;2022-12-07T11:45:14;100603.38;;;21.38;32.31
44313;BME280;38833;51.142;-0.974;2022-12-07T11:47:51;100599.18;;;21.19;32.18
44313;BME280;38833;51.142;-0.974;2022-12-07T11:50:33;100592.67;;;21.25;32.39
44313;BME280;38833;51.142;-0.974;2022-12-07T11:53:14;100591.20;;;21.37;32.15
44313;BME280;38833;51.142;-0.974;2022-12-07T11:55:54;100591.01;;;21.37;32.17
44313;BME280;38833;51.142;-0.974;2022-12-07T11:58:42;100586.70;;;21.12;32.52
44313;BME280;38833;51.142;-0.974;2022-12-07T12:01:31;100584.91;;;21.06;32.53
44313;BME280;38833;51.142;-0.974;2022-12-07T12:04:18;100583.94;;;21.16;32.38
44313;BME280;38833;51.142;-0.974;2022-12-07T12:06:56;100580.06;;;21.25;32.48
44313;BME280;38833;51.142;-0.974;2022-12-07T12:09:33;100578.34;;;21.33;32.40
44313;BME280;38833;51.142;-0.974;2022-12-07T12:12:24;100579.34;;;21.21;32.41
44313;BME280;38833;51.142;-0.974;2022-12-07T12:15:14;100578.90;;;21.24;32.47
44313;BME280;38833;51.142;-0.974;2022-12-07T12:18:05;100576.32;;;21.32;32.43
44313;BME280;38833;51.142;-0.974;2022-12-07T12:20:45;100574.30;;;21.07;32.30
44313;BME280;38833;51.142;-0.974;2022-12-07T12:23:22;100573.96;;;21.40;32.17
44313;BME280;38833;51.142;-0.974;2022-12-07T12:25:58;100572.03;;;21.29;32.21
44313;BME280;38833;51.142;-0.974;2022-12-07T12:28:37;100570.25;;;21.78;31.88
44313;BME280;38833;51.142;-0.974;2022-12-07T12:31:15;100567.21;;;22.20;31.38
44313;BME280;38833;51.142;-0.974;2022-12-07T12:33:50;100562.18;;;22.40;31.05
44313;BME280;38833;51.142;-0.974;2022-12-07T12:36:27;100558.17;;;22.56;30.94
44313;BME280;38833;51.142;-0.974;2022-12-07T12:39:16;100551.12;;;22.72;30.80
44313;BME280;38833;51.142;-0.974;2022-12-07T12:41:54;100548.22;;;23.20;30.87
44313;BME280;38833;51.142;-0.974;2022-12-07T12:45:21;100546.03;;;23.19;30.93
44313;BME280;38833;51.142;-0.974;2022-12-07T12:47:57;100543.82;;;23.40;30.80
44313;BME280;38833;51.142;-0.974;2022-12-07T12:50:32;100540.23;;;23.25;30.76
44313;BME280;38833;51.142;-0.974;2022-12-07T12:53:16;100533.94;;;23.13;30.68
44313;BME280;38833;51.142;-0.974;2022-12-07T12:56:37;100528.88;;;23.32;30.68
44313;BME280;38833;51.142;-0.974;2022-12-07T12:59:24;100524.71;;;23.35;30.82
44313;BME280;38833;51.142;-0.974;2022-12-07T13:02:16;100525.81;;;23.78;30.39
44313;BME280;38833;51.142;-0.974;2022-12-07T13:04:55;100522.16;;;23.84;30.19
44313;BME280;38833;51.142;-0.974;2022-12-07T13:07:53;100520.52;;;24.43;30.09
44313;BME280;38833;51.142;-0.974;2022-12-07T13:10:40;100516.02;;;24.19;29.94
44313;BME280;38833;51.142;-0.974;2022-12-07T13:13:33;100513.81;;;24.35;29.91
44313;BME280;38833;51.142;-0.974;2022-12-07T13:16:40;100507.38;;;23.54;29.90
44313;BME280;38833;51.142;-0.974;2022-12-07T13:19:53;100498.53;;;23.31;29.81
44313;BME280;38833;51.142;-0.974;2022-12-07T13:22:41;100492.80;;;23.38;30.08
44313;BME280;38833;51.142;-0.974;2022-12-07T13:25:38;100487.16;;;23.21;29.97
44313;BME280;38833;51.142;-0.974;2022-12-07T13:28:17;100483.82;;;23.29;29.77
44313;BME280;38833;51.142;-0.974;2022-12-07T13:31:02;100482.40;;;23.29;29.75
44313;BME280;38833;51.142;-0.974;2022-12-07T13:33:36;100479.60;;;23.47;29.70
44313;BME280;38833;51.142;-0.974;2022-12-07T13:36:16;100473.72;;;23.71;29.45